Time;durP1;ratioP1;P1;durP2;ratioP2;P2;SDS_P1;SDS_P2;PMS_P1;PMS_P2;Temp;Humidity;BMP_temperature;BMP_pressure;BME280_temperature;BME280_humidity;BME280_pressure;Samples;Min_cycle;Max_cycle;Signal;HPM_P1;HPM_P2
2023/09/02 00:02:22;;;;;;;8.68;7.55;;;18.40;99.90;;;;;;5054782;28;20171;-52
2023/09/02 00:04:48;;;;;;;7.88;7.22;;;18.20;99.90;;;;;;5054777;28;20186;-53
2023/09/02 00:07:14;;;;;;;8.18;7.47;;;18.30;99.90;;;;;;5054673;28;20179;-52
2023/09/02 00:09:39;;;;;;;8.27;7.57;;;18.30;99.90;;;;;;5054538;28;20545;-52
2023/09/02 00:12:06;;;;;;;9.32;8.43;;;18.30;99.90;;;;;;5054452;28;20187;-49
2023/09/02 00:14:32;;;;;;;8.80;8.00;;;18.30;99.90;;;;;;5054187;28;20214;-53
2023/09/02 00:16:58;;;;;;;10.90;8.25;;;18.30;99.90;;;;;;5054493;28;20211;-54
2023/09/02 00:19:24;;;;;;;8.93;8.10;;;18.30;99.90;;;;;;5054173;28;20230;-52
2023/09/02 00:21:49;;;;;;;8.63;7.25;;;18.30;99.90;;;;;;5054407;28;20163;-52
2023/09/02 00:24:15;;;;;;;8.70;7.70;;;18.30;99.90;;;;;;5054213;28;20502;-54
2023/09/02 00:26:41;;;;;;;9.13;8.32;;;18.30;99.90;;;;;;5054207;28;20641;-53
2023/09/02 00:29:06;;;;;;;8.98;8.07;;;18.30;99.90;;;;;;5054079;28;20240;-53
2023/09/02 00:31:33;;;;;;;9.88;9.02;;;18.20;99.90;;;;;;5054163;28;20190;-50
2023/09/02 00:33:59;;;;;;;9.57;8.63;;;18.30;99.90;;;;;;5054251;28;20663;-53
2023/09/02 00:36:26;;;;;;;10.60;8.38;;;18.30;99.90;;;;;;5052954;28;20207;-52
2023/09/02 00:38:52;;;;;;;9.10;8.20;;;18.20;99.90;;;;;;5053979;28;20190;-53
2023/09/02 00:41:35;;;;;;;8.00;7.22;;;18.20;99.90;;;;;;5054012;28;20172;-53
2023/09/02 00:44:01;;;;;;;9.32;7.88;;;18.20;99.90;;;;;;5054103;28;20178;-51
2023/09/02 00:46:27;;;;;;;10.45;6.95;;;18.20;99.90;;;;;;5054101;28;20532;-53
2023/09/02 00:48:54;;;;;;;11.00;8.13;;;18.10;99.90;;;;;;5053695;28;20209;-54
2023/09/02 00:51:20;;;;;;;9.00;7.80;;;18.00;99.90;;;;;;5053792;28;20640;-52
2023/09/02 00:53:45;;;;;;;7.90;6.68;;;17.90;99.90;;;;;;5053614;28;20173;-52
2023/09/02 00:56:13;;;;;;;8.57;7.53;;;17.90;99.90;;;;;;5053574;28;20207;-54
2023/09/02 00:58:40;;;;;;;9.60;8.35;;;17.80;99.90;;;;;;5053497;28;20221;-52
2023/09/02 01:01:06;;;;;;;9.45;7.90;;;17.90;99.90;;;;;;5053466;28;20532;-54
2023/09/02 01:03:35;;;;;;;8.35;7.55;;;17.90;99.90;;;;;;5053698;28;20183;-53
2023/09/02 01:06:02;;;;;;;10.00;7.53;;;17.90;99.90;;;;;;5053487;28;20251;-54
2023/09/02 01:08:30;;;;;;;13.50;7.93;;;17.90;99.90;;;;;;5053578;28;20167;-53
2023/09/02 01:10:58;;;;;;;10.40;7.53;;;18.00;99.90;;;;;;5053420;28;20407;-54
2023/09/02 01:13:24;;;;;;;10.25;8.07;;;18.00;99.90;;;;;;5053483;28;20171;-53
2023/09/02 01:15:49;;;;;;;14.30;7.25;;;18.00;99.90;;;;;;5053395;28;20200;-53
2023/09/02 01:18:16;;;;;;;11.65;7.28;;;17.90;99.90;;;;;;5052279;28;20171;-53
2023/09/02 01:21:15;;;;;;;7.35;6.40;;;17.90;99.90;;;;;;5052920;28;20711;-53
2023/09/02 01:24:18;;;;;;;6.50;5.88;;;18.00;99.90;;;;;;5053393;28;20164;-51
2023/09/02 01:27:05;;;;;;;10.75;6.28;;;18.00;99.90;;;;;;5053274;28;20179;-50
2023/09/02 01:29:35;;;;;;;6.70;6.00;;;17.90;99.90;;;;;;5053146;28;20178;-51
2023/09/02 01:32:03;;;;;;;6.43;5.70;;;17.90;99.90;;;;;;5053375;28;20207;-53
2023/09/02 01:34:30;;;;;;;5.68;5.03;;;17.90;99.90;;;;;;5052065;28;20609;-53
2023/09/02 01:36:58;;;;;;;5.47;4.97;;;17.90;99.90;;;;;;5051847;28;20214;-53
2023/09/02 01:39:25;;;;;;;6.03;4.35;;;17.90;99.90;;;;;;5053068;28;20163;-53
2023/09/02 01:41:52;;;;;;;5.30;4.13;;;17.90;99.90;;;;;;5053121;28;20186;-53
2023/09/02 01:44:18;;;;;;;5.38;4.65;;;17.80;99.90;;;;;;5052947;28;20205;-52
2023/09/02 01:46:46;;;;;;;8.43;4.20;;;17.80;99.90;;;;;;5054104;28;20640;-54
2023/09/02 01:49:12;;;;;;;6.20;3.97;;;17.90;99.90;;;;;;5057214;28;20568;-52
2023/09/02 01:51:39;;;;;;;5.22;3.90;;;17.80;99.90;;;;;;5057180;28;20189;-53
2023/09/02 01:54:05;;;;;;;5.80;3.72;;;17.80;99.90;;;;;;5055911;28;20182;-53
2023/09/02 01:56:31;;;;;;;5.80;4.50;;;17.80;99.90;;;;;;5056883;28;20683;-52
2023/09/02 01:58:57;;;;;;;4.35;3.38;;;17.80;99.90;;;;;;5056892;28;20179;-50
2023/09/02 02:01:23;;;;;;;4.35;3.92;;;17.80;99.90;;;;;;5057041;28;20175;-53
2023/09/02 02:04:26;;;;;;;4.15;3.75;;;17.80;99.90;;;;;;5056559;28;20183;-53
2023/09/02 02:06:59;;;;;;;4.65;3.97;;;17.70;99.90;;;;;;5051641;28;20547;-50
2023/09/02 02:09:33;;;;;;;3.70;3.40;;;17.70;99.90;;;;;;5056793;28;20167;-53
2023/09/02 02:12:02;;;;;;;5.28;3.70;;;17.70;99.90;;;;;;5056702;28;20647;-54
2023/09/02 02:14:32;;;;;;;5.80;3.50;;;17.80;99.90;;;;;;5056690;28;20591;-49
2023/09/02 02:16:58;;;;;;;5.95;3.70;;;17.80;99.90;;;;;;5056600;28;20746;-53
2023/09/02 02:19:23;;;;;;;5.15;4.03;;;17.60;99.90;;;;;;5056555;28;20257;-53
2023/09/02 02:21:49;;;;;;;5.85;3.13;;;17.60;99.90;;;;;;5056763;28;20233;-52
2023/09/02 02:24:15;;;;;;;4.45;3.10;;;17.60;99.90;;;;;;5056419;28;20175;-52
2023/09/02 02:26:40;;;;;;;4.53;3.65;;;17.50;99.90;;;;;;5056542;28;20252;-50
2023/09/02 02:29:06;;;;;;;4.32;3.60;;;17.60;99.90;;;;;;5056496;28;20171;-52
2023/09/02 02:31:33;;;;;;;5.90;3.75;;;17.50;99.90;;;;;;5056462;28;20501;-54
2023/09/02 02:33:59;;;;;;;7.43;3.65;;;17.60;99.90;;;;;;5056389;28;20172;-52
2023/09/02 02:36:24;;;;;;;6.93;3.33;;;17.60;99.90;;;;;;5056063;28;20207;-54
2023/09/02 02:38:50;;;;;;;7.75;3.85;;;17.50;99.90;;;;;;5056199;28;20521;-50
2023/09/02 02:41:15;;;;;;;6.78;4.15;;;17.50;99.90;;;;;;5056284;28;20190;-53
2023/09/02 02:43:41;;;;;;;6.75;4.40;;;17.50;99.90;;;;;;5056065;28;20183;-53
2023/09/02 02:46:07;;;;;;;4.90;3.78;;;17.50;99.90;;;;;;5056189;28;20183;-53
2023/09/02 02:48:32;;;;;;;6.13;3.88;;;17.40;99.90;;;;;;5056044;28;20175;-54
2023/09/02 02:50:58;;;;;;;4.30;3.90;;;17.40;99.90;;;;;;5055941;28;20171;-52
2023/09/02 02:53:24;;;;;;;5.10;3.65;;;17.30;99.90;;;;;;5055953;28;20245;-51
2023/09/02 02:55:50;;;;;;;7.53;3.83;;;17.20;99.90;;;;;;5055991;28;20206;-49
2023/09/02 02:58:16;;;;;;;4.18;3.78;;;17.30;99.90;;;;;;5055035;28;20535;-52
2023/09/02 03:00:46;;;;;;;4.63;4.20;;;17.30;99.90;;;;;;5055906;28;20179;-52
2023/09/02 03:03:12;;;;;;;4.90;3.80;;;17.40;99.90;;;;;;5055810;28;20175;-53
2023/09/02 03:05:39;;;;;;;5.05;3.70;;;17.40;99.90;;;;;;5055667;28;20586;-52
2023/09/02 03:08:05;;;;;;;4.78;4.38;;;17.40;99.90;;;;;;5055893;28;20184;-53
2023/09/02 03:10:33;;;;;;;7.72;4.40;;;17.40;99.90;;;;;;5055772;28;20693;-51
2023/09/02 03:12:59;;;;;;;6.32;3.90;;;17.40;99.90;;;;;;5055656;28;20184;-53
2023/09/02 03:15:25;;;;;;;5.82;4.40;;;17.40;99.90;;;;;;5055495;28;20529;-53
2023/09/02 03:17:50;;;;;;;6.70;4.32;;;17.30;99.90;;;;;;5055500;28;20262;-50
2023/09/02 03:20:16;;;;;;;7.18;4.65;;;17.30;99.90;;;;;;5055608;28;20686;-52
2023/09/02 03:22:42;;;;;;;5.93;5.20;;;17.30;99.90;;;;;;5055546;28;20183;-54
2023/09/02 03:25:08;;;;;;;5.47;4.80;;;17.30;99.90;;;;;;5055577;28;20176;-53
2023/09/02 03:27:40;;;;;;;5.95;5.05;;;17.30;99.90;;;;;;5055404;28;20206;-53
2023/09/02 03:30:07;;;;;;;4.22;3.83;;;17.30;99.90;;;;;;5055189;28;20254;-53
2023/09/02 03:32:33;;;;;;;7.03;4.47;;;17.40;99.90;;;;;;5055234;28;20229;-50
2023/09/02 03:34:59;;;;;;;5.00;4.05;;;17.40;99.90;;;;;;5055060;28;20175;-49
2023/09/02 03:37:26;;;;;;;6.60;4.50;;;17.40;99.90;;;;;;5055224;28;20207;-50
2023/09/02 03:39:53;;;;;;;4.43;4.03;;;17.30;99.90;;;;;;5055174;28;20175;-52
2023/09/02 03:42:19;;;;;;;4.40;4.00;;;17.40;99.90;;;;;;5054972;28;20636;-53
2023/09/02 03:44:45;;;;;;;5.10;4.18;;;17.30;99.90;;;;;;5054960;28;20628;-51
2023/09/02 03:47:11;;;;;;;5.35;4.85;;;17.30;99.90;;;;;;5054893;28;20225;-53
2023/09/02 03:49:36;;;;;;;5.35;4.53;;;17.30;99.90;;;;;;5054813;28;20179;-54
2023/09/02 03:52:02;;;;;;;5.07;3.70;;;17.30;99.90;;;;;;5055284;28;20175;-52
2023/09/02 03:54:28;;;;;;;4.07;3.75;;;17.10;99.90;;;;;;5054835;28;20172;-50
2023/09/02 03:56:53;;;;;;;4.70;3.40;;;16.90;99.90;;;;;;5054773;28;20733;-53
2023/09/02 03:59:19;;;;;;;5.25;3.70;;;16.90;99.90;;;;;;5054671;28;20186;-53
2023/09/02 04:01:45;;;;;;;6.28;4.13;;;17.00;99.90;;;;;;5054660;28;20178;-52
2023/09/02 04:04:11;;;;;;;4.47;4.18;;;17.00;99.90;;;;;;5053238;28;20538;-51
2023/09/02 04:06:38;;;;;;;5.88;4.32;;;17.10;99.90;;;;;;5054747;28;20180;-51
2023/09/02 04:09:08;;;;;;;5.75;3.70;;;17.10;99.90;;;;;;5054680;28;20172;-52
2023/09/02 04:11:33;;;;;;;4.13;3.72;;;17.10;99.90;;;;;;5054845;28;20167;-48
2023/09/02 04:14:00;;;;;;;4.50;3.88;;;17.10;99.90;;;;;;5054490;28;20608;-51
2023/09/02 04:16:26;;;;;;;10.80;3.72;;;17.10;99.90;;;;;;5054201;28;20215;-51
2023/09/02 04:18:52;;;;;;;5.50;3.75;;;17.00;99.90;;;;;;5054128;28;20175;-54
2023/09/02 04:21:18;;;;;;;5.55;4.00;;;16.90;99.90;;;;;;5054414;28;20186;-52
2023/09/02 04:23:44;;;;;;;4.60;4.20;;;17.00;99.90;;;;;;5054170;28;20171;-54
2023/09/02 04:26:09;;;;;;;5.18;4.53;;;17.10;99.90;;;;;;5054221;28;20514;-51
2023/09/02 04:28:35;;;;;;;4.85;4.35;;;17.10;99.90;;;;;;5054164;28;20175;-53
2023/09/02 04:31:01;;;;;;;5.68;5.00;;;17.20;99.90;;;;;;5054153;28;20175;-53
2023/09/02 04:33:27;;;;;;;5.82;4.82;;;17.20;99.90;;;;;;5052656;28;20665;-52
2023/09/02 04:35:53;;;;;;;5.10;4.70;;;17.10;99.90;;;;;;5054078;28;20199;-52
2023/09/02 04:38:19;;;;;;;5.90;5.18;;;17.10;99.90;;;;;;5054045;28;20175;-51
2023/09/02 04:40:45;;;;;;;6.15;4.63;;;17.10;99.90;;;;;;5054048;28;20168;-53
2023/09/02 04:43:13;;;;;;;6.82;4.90;;;17.10;99.90;;;;;;5053923;28;20175;-53
2023/09/02 04:45:40;;;;;;;7.18;4.82;;;17.10;99.90;;;;;;5053750;28;20225;-53
2023/09/02 04:48:08;;;;;;;6.05;5.15;;;17.20;99.90;;;;;;5053802;28;20175;-52
2023/09/02 04:50:35;;;;;;;6.40;4.72;;;17.30;99.90;;;;;;5053906;28;20197;-53
2023/09/02 04:53:02;;;;;;;6.72;5.22;;;17.30;99.90;;;;;;5053820;28;20176;-52
2023/09/02 04:55:28;;;;;;;10.77;6.75;;;17.40;99.90;;;;;;5053601;28;20207;-54
2023/09/02 04:57:55;;;;;;;6.63;5.97;;;17.40;99.90;;;;;;5053620;28;20221;-51
2023/09/02 05:00:25;;;;;;;7.03;5.70;;;17.30;99.90;;;;;;5053500;28;20182;-54
2023/09/02 05:02:51;;;;;;;7.03;5.65;;;17.30;99.90;;;;;;5053709;28;20179;-53
2023/09/02 05:05:18;;;;;;;6.80;5.53;;;17.30;99.90;;;;;;5053965;28;20262;-52
2023/09/02 05:07:45;;;;;;;7.70;5.82;;;17.40;99.90;;;;;;5053540;28;20655;-51
2023/09/02 05:10:12;;;;;;;7.40;6.00;;;17.30;99.90;;;;;;5053474;28;20644;-52
2023/09/02 05:12:37;;;;;;;7.95;6.07;;;17.40;99.90;;;;;;5053239;28;20659;-51
2023/09/02 05:15:03;;;;;;;7.70;6.25;;;17.30;99.90;;;;;;5053324;28;20179;-51
2023/09/02 05:17:33;;;;;;;8.15;5.75;;;17.40;99.90;;;;;;5053620;28;20687;-53
2023/09/02 05:19:59;;;;;;;6.53;5.93;;;17.40;99.90;;;;;;5053314;28;20223;-52
2023/09/02 05:22:25;;;;;;;8.10;7.25;;;17.50;99.90;;;;;;5052813;28;20178;-52
2023/09/02 05:24:51;;;;;;;9.38;7.32;;;17.60;99.90;;;;;;5053196;28;20510;-52
2023/09/02 05:27:17;;;;;;;8.15;6.30;;;17.50;99.90;;;;;;5052872;28;20186;-46
2023/09/02 05:29:43;;;;;;;8.02;6.50;;;17.50;99.90;;;;;;5053109;28;20167;-48
2023/09/02 05:32:09;;;;;;;7.93;6.55;;;17.50;99.90;;;;;;5053359;28;20263;-49
2023/09/02 05:34:35;;;;;;;6.93;6.28;;;17.60;99.90;;;;;;5053055;28;20262;-50
2023/09/02 05:37:02;;;;;;;7.97;6.05;;;17.70;99.90;;;;;;5053407;28;20214;-46
2023/09/02 05:39:28;;;;;;;8.18;6.25;;;17.70;99.90;;;;;;5053199;28;20178;-50
2023/09/02 05:41:53;;;;;;;6.82;6.18;;;17.80;99.90;;;;;;5052338;28;20567;-49
2023/09/02 05:44:19;;;;;;;8.68;6.90;;;17.80;99.90;;;;;;5051691;28;20179;-49
2023/09/02 05:46:45;;;;;;;8.52;6.20;;;17.80;99.90;;;;;;5052513;28;20233;-50
2023/09/02 05:49:12;;;;;;;8.75;7.05;;;17.90;99.90;;;;;;5051106;28;20209;-50
2023/09/02 05:51:38;;;;;;;8.00;7.18;;;17.90;99.90;;;;;;5052510;28;20190;-51
2023/09/02 05:54:04;;;;;;;10.25;7.30;;;17.90;99.90;;;;;;5051447;28;20646;-47
2023/09/02 05:56:31;;;;;;;7.00;6.40;;;17.80;99.90;;;;;;5052349;28;20203;-48
2023/09/02 05:58:58;;;;;;;7.57;6.85;;;17.90;99.90;;;;;;5052317;28;20175;-52
2023/09/02 06:01:23;;;;;;;8.20;6.80;;;17.90;99.90;;;;;;5052596;28;20171;-48
2023/09/02 06:03:49;;;;;;;10.95;7.10;;;18.00;99.90;;;;;;5051638;28;20650;-51
2023/09/02 06:06:14;;;;;;;8.07;7.28;;;18.00;99.90;;;;;;5052789;28;20262;-48
2023/09/02 06:08:48;;;;;;;9.38;7.63;;;18.00;99.90;;;;;;5054534;28;20183;-46
2023/09/02 06:11:14;;;;;;;9.50;8.50;;;17.90;99.90;;;;;;5052841;28;20183;-51
2023/09/02 06:13:40;;;;;;;11.32;8.00;;;17.90;99.90;;;;;;5052502;28;20171;-48
2023/09/02 06:16:06;;;;;;;8.77;7.88;;;17.90;99.90;;;;;;5052609;28;20211;-47
2023/09/02 06:18:33;;;;;;;9.10;7.13;;;17.90;99.90;;;;;;5052599;28;20250;-47
2023/09/02 06:21:06;;;;;;;10.15;7.13;;;17.90;99.90;;;;;;5051621;28;20704;-50
2023/09/02 06:23:32;;;;;;;7.30;6.60;;;18.00;99.90;;;;;;5038187;28;20198;-48
2023/09/02 06:25:59;;;;;;;7.15;6.55;;;18.00;99.90;;;;;;5032716;28;20184;-50
2023/09/02 06:28:26;;;;;;;7.30;6.57;;;18.00;99.90;;;;;;5032129;28;20519;-48
2023/09/02 06:30:52;;;;;;;7.00;6.38;;;17.90;99.90;;;;;;5032138;28;20176;-49
2023/09/02 06:33:20;;;;;;;6.97;6.30;;;17.90;99.90;;;;;;5032539;28;20205;-51
2023/09/02 06:35:46;;;;;;;7.40;6.45;;;18.00;99.90;;;;;;5036124;28;20208;-49
2023/09/02 06:38:12;;;;;;;6.80;6.00;;;17.90;99.90;;;;;;5036123;28;20195;-51
2023/09/02 06:40:37;;;;;;;8.65;5.82;;;18.00;99.90;;;;;;5035742;28;20180;-49
2023/09/02 06:43:03;;;;;;;14.90;6.50;;;18.10;99.90;;;;;;5036437;28;20184;-47
2023/09/02 06:45:29;;;;;;;8.60;6.68;;;18.10;99.90;;;;;;5036199;28;20184;-51
2023/09/02 06:47:54;;;;;;;9.23;6.85;;;18.00;99.90;;;;;;5035961;28;20187;-48
2023/09/02 06:50:20;;;;;;;7.53;6.43;;;18.10;99.90;;;;;;5044357;28;20183;-50
2023/09/02 06:52:46;;;;;;;9.02;6.35;;;18.20;99.90;;;;;;5035623;28;20184;-49
2023/09/02 06:55:13;;;;;;;6.32;5.72;;;18.30;99.90;;;;;;5035549;28;20190;-51
2023/09/02 06:57:44;;;;;;;7.90;6.47;;;18.30;99.90;;;;;;5051913;28;20253;-51
2023/09/02 07:00:11;;;;;;;6.75;6.13;;;18.40;99.90;;;;;;5040923;28;20200;-52
2023/09/02 07:02:36;;;;;;;6.50;5.80;;;18.50;99.90;;;;;;5035533;28;20184;-48
2023/09/02 07:05:02;;;;;;;6.25;5.75;;;18.50;99.90;;;;;;5043163;28;20190;-47
2023/09/02 07:07:28;;;;;;;7.90;6.78;;;18.50;99.90;;;;;;5044414;28;20191;-48
2023/09/02 07:09:54;;;;;;;7.10;6.30;;;18.60;99.90;;;;;;5035236;28;20537;-52
2023/09/02 07:12:20;;;;;;;8.10;7.40;;;18.60;99.90;;;;;;5035709;28;20652;-47
2023/09/02 07:14:45;;;;;;;8.20;7.40;;;18.60;99.90;;;;;;5035593;28;20637;-47
2023/09/02 07:17:11;;;;;;;7.60;6.97;;;18.70;99.90;;;;;;5035673;28;20216;-50
2023/09/02 07:19:37;;;;;;;7.18;6.47;;;18.70;99.90;;;;;;5035550;28;20235;-49
2023/09/02 07:22:02;;;;;;;9.40;7.88;;;18.70;99.90;;;;;;5035561;28;20691;-50
2023/09/02 07:24:29;;;;;;;8.95;7.13;;;18.70;99.90;;;;;;5035406;28;20199;-49
2023/09/02 07:26:54;;;;;;;7.45;6.75;;;18.60;99.90;;;;;;5035355;28;20191;-51
2023/09/02 07:29:20;;;;;;;7.47;6.70;;;18.70;99.90;;;;;;5035451;28;20545;-48
2023/09/02 07:31:46;;;;;;;7.18;6.47;;;18.80;99.90;;;;;;5035389;28;20184;-50
2023/09/02 07:34:12;;;;;;;9.18;6.78;;;18.80;99.90;;;;;;5035310;28;20572;-50
2023/09/02 07:36:38;;;;;;;8.98;7.40;;;18.80;99.90;;;;;;5035213;28;20202;-50
2023/09/02 07:39:04;;;;;;;8.00;7.30;;;18.90;99.90;;;;;;5035066;28;20263;-51
2023/09/02 07:41:30;;;;;;;9.35;8.43;;;18.90;99.90;;;;;;5035332;28;20173;-51
2023/09/02 07:43:56;;;;;;;9.27;8.38;;;18.90;99.90;;;;;;5035043;28;20218;-51
2023/09/02 07:46:22;;;;;;;8.90;8.10;;;18.80;99.90;;;;;;5034879;28;20192;-51
2023/09/02 07:48:51;;;;;;;9.25;8.32;;;18.80;99.90;;;;;;5035050;28;20621;-52
2023/09/02 07:51:17;;;;;;;10.07;9.05;;;18.90;99.90;;;;;;5035012;28;20229;-47
2023/09/02 07:53:44;;;;;;;10.75;9.65;;;18.90;99.90;;;;;;5034804;28;20641;-50
2023/09/02 07:56:10;;;;;;;11.07;9.85;;;19.00;99.90;;;;;;5034747;28;20208;-51
2023/09/02 07:58:35;;;;;;;11.05;10.05;;;19.00;99.90;;;;;;5034955;28;20633;-49
2023/09/02 08:01:02;;;;;;;11.50;10.20;;;19.00;99.90;;;;;;5034918;28;20208;-49
2023/09/02 08:03:27;;;;;;;11.52;10.38;;;19.00;99.90;;;;;;5034761;28;20176;-52
2023/09/02 08:05:54;;;;;;;12.40;11.13;;;19.10;99.90;;;;;;5034753;28;20707;-52
2023/09/02 08:08:19;;;;;;;12.20;11.00;;;19.00;99.90;;;;;;5034675;28;20180;-50
2023/09/02 08:10:45;;;;;;;12.68;11.45;;;19.10;99.90;;;;;;5034887;28;20226;-48
2023/09/02 08:13:10;;;;;;;15.50;11.82;;;19.00;99.90;;;;;;5034714;28;20183;-51
2023/09/02 08:15:38;;;;;;;11.70;10.60;;;19.00;99.90;;;;;;5034410;28;20230;-49
2023/09/02 08:18:04;;;;;;;12.20;11.07;;;19.10;99.90;;;;;;5033352;28;20272;-49
2023/09/02 08:20:33;;;;;;;11.00;9.93;;;19.10;99.90;;;;;;5034616;28;20286;-50
2023/09/02 08:22:59;;;;;;;12.10;10.80;;;19.20;99.90;;;;;;5034186;28;20222;-50
2023/09/02 08:25:24;;;;;;;12.27;10.98;;;19.30;99.90;;;;;;5034492;28;20180;-48
2023/09/02 08:27:50;;;;;;;14.13;11.30;;;19.50;99.90;;;;;;5034451;28;20530;-48
2023/09/02 08:30:16;;;;;;;11.98;10.85;;;19.50;99.90;;;;;;5034303;28;20183;-51
2023/09/02 08:32:42;;;;;;;12.90;11.60;;;19.60;99.90;;;;;;5033937;28;20176;-50
2023/09/02 08:35:08;;;;;;;11.95;10.80;;;19.70;99.90;;;;;;5034097;28;20530;-51
2023/09/02 08:37:37;;;;;;;12.13;10.93;;;19.90;99.90;;;;;;5033966;28;20338;-51
2023/09/02 08:40:03;;;;;;;13.27;11.32;;;20.00;99.90;;;;;;5034346;28;20211;-52
2023/09/02 08:42:29;;;;;;;14.00;11.57;;;20.10;99.90;;;;;;5034116;28;20179;-50
2023/09/02 08:44:56;;;;;;;12.63;11.32;;;20.10;99.90;;;;;;5034352;28;20572;-50
2023/09/02 08:47:24;;;;;;;13.27;11.27;;;20.20;99.90;;;;;;5033935;28;20564;-50
2023/09/02 08:49:51;;;;;;;12.48;11.27;;;20.30;99.90;;;;;;5033907;28;20181;-51
2023/09/02 08:52:18;;;;;;;12.05;9.98;;;20.40;99.90;;;;;;5033762;28;20247;-50
2023/09/02 08:54:44;;;;;;;15.95;11.63;;;20.60;99.90;;;;;;5033954;28;20176;-49
2023/09/02 08:57:16;;;;;;;14.98;10.85;;;20.70;99.90;;;;;;5032970;28;20281;-50
2023/09/02 08:59:41;;;;;;;14.63;11.82;;;20.90;99.90;;;;;;5033877;28;20358;-50
2023/09/02 09:02:10;;;;;;;14.10;10.88;;;21.00;99.90;;;;;;5033762;28;20258;-50
2023/09/02 09:04:38;;;;;;;12.75;10.18;;;21.00;99.90;;;;;;5033528;28;20199;-50
2023/09/02 09:07:04;;;;;;;12.05;10.32;;;21.20;99.90;;;;;;5033740;28;20184;-49
2023/09/02 09:09:34;;;;;;;10.93;9.60;;;21.30;99.90;;;;;;5033764;28;20255;-49
2023/09/02 09:12:01;;;;;;;15.68;10.82;;;21.30;99.90;;;;;;5033683;28;20172;-49
2023/09/02 09:14:31;;;;;;;10.95;9.85;;;21.40;99.90;;;;;;5033488;28;20210;-49
2023/09/02 09:16:58;;;;;;;10.90;9.80;;;21.50;99.90;;;;;;5033237;28;20530;-50
2023/09/02 09:19:25;;;;;;;11.55;10.30;;;21.50;99.90;;;;;;5033339;28;20913;-52
2023/09/02 09:21:51;;;;;;;13.15;11.45;;;21.30;99.90;;;;;;5033617;28;20218;-49
2023/09/02 09:24:17;;;;;;;11.80;10.63;;;21.30;99.90;;;;;;5033416;28;20552;-51
2023/09/02 09:26:44;;;;;;;13.57;11.15;;;21.30;99.90;;;;;;5033431;28;20176;-51
2023/09/02 09:29:14;;;;;;;14.68;11.85;;;21.40;99.90;;;;;;5033332;28;20176;-53
2023/09/02 09:31:40;;;;;;;12.98;11.68;;;21.60;99.90;;;;;;5033305;28;20291;-52
2023/09/02 09:34:06;;;;;;;11.80;10.63;;;21.60;99.90;;;;;;5033157;28;20203;-50
2023/09/02 09:36:33;;;;;;;11.63;10.45;;;21.80;99.90;;;;;;5033287;28;20239;-51
2023/09/02 09:39:03;;;;;;;11.70;10.60;;;21.90;99.90;;;;;;5033365;28;20172;-53
2023/09/02 09:41:29;;;;;;;11.73;10.63;;;21.80;99.90;;;;;;5033323;28;20660;-51
2023/09/02 09:44:07;;;;;;;12.02;10.82;;;21.70;99.90;;;;;;5033205;28;20203;-53
2023/09/02 09:46:47;;;;;;;11.73;10.52;;;21.70;99.90;;;;;;5032923;28;20197;-49
2023/09/02 09:49:27;;;;;;;12.63;11.23;;;21.80;99.90;;;;;;5033265;28;20207;-52
2023/09/02 09:52:02;;;;;;;11.43;10.32;;;21.80;99.90;;;;;;5032941;28;20180;-50
2023/09/02 09:54:47;;;;;;;11.82;10.40;;;21.70;99.90;;;;;;5033044;28;20217;-49
2023/09/02 09:57:32;;;;;;;9.57;8.68;;;21.70;99.90;;;;;;5033402;28;20205;-52
2023/09/02 09:59:57;;;;;;;9.60;8.73;;;21.70;99.90;;;;;;5033196;28;20258;-52
2023/09/02 10:02:24;;;;;;;11.35;10.20;;;21.70;99.90;;;;;;5033049;28;20257;-53
2023/09/02 10:04:54;;;;;;;13.10;11.80;;;21.80;99.90;;;;;;5032958;28;20685;-54
2023/09/02 10:07:24;;;;;;;13.35;10.18;;;22.00;99.90;;;;;;5033581;28;20691;-50
2023/09/02 10:09:50;;;;;;;11.65;10.55;;;22.00;99.90;;;;;;5036988;28;20176;-52
2023/09/02 10:12:16;;;;;;;10.25;9.32;;;22.10;99.90;;;;;;5037034;28;20172;-50
2023/09/02 10:14:46;;;;;;;11.05;9.95;;;22.20;99.90;;;;;;5036868;28;20593;-49
2023/09/02 10:17:13;;;;;;;10.85;9.60;;;22.60;99.90;;;;;;5036904;28;20294;-50
2023/09/02 10:19:39;;;;;;;11.38;8.98;;;22.60;99.90;;;;;;5036406;28;20700;-51
2023/09/02 10:22:06;;;;;;;9.25;8.35;;;22.70;99.90;;;;;;5036535;28;20517;-51
2023/09/02 10:24:44;;;;;;;9.57;8.60;;;22.90;99.90;;;;;;5036801;28;20199;-51
2023/09/02 10:27:20;;;;;;;9.15;8.25;;;22.90;99.90;;;;;;5036749;28;20172;-53
2023/09/02 10:29:57;;;;;;;11.13;10.02;;;22.90;99.90;;;;;;5036636;28;20262;-52
2023/09/02 10:32:49;;;;;;;10.63;9.23;;;22.70;99.90;;;;;;5036402;28;20175;-56
2023/09/02 10:35:21;;;;;;;10.95;9.90;;;22.50;99.90;;;;;;5036746;28;20206;-52
2023/09/02 10:37:55;;;;;;;11.05;9.95;;;22.50;99.90;;;;;;5036409;28;20346;-52
2023/09/02 10:40:26;;;;;;;11.23;9.65;;;22.30;99.90;;;;;;5036489;28;20170;-54
2023/09/02 10:42:53;;;;;;;11.80;10.70;;;22.20;99.90;;;;;;5036357;28;20180;-50
2023/09/02 10:45:19;;;;;;;10.90;9.82;;;22.20;99.90;;;;;;5036761;28;20215;-53
2023/09/02 10:47:46;;;;;;;13.43;12.15;;;22.40;99.90;;;;;;5036328;28;20207;-50
2023/09/02 10:50:14;;;;;;;11.85;10.85;;;22.40;99.90;;;;;;5036308;28;20172;-52
2023/09/02 10:52:40;;;;;;;12.55;11.40;;;22.70;99.90;;;;;;5036125;28;20532;-50
2023/09/02 10:55:08;;;;;;;14.25;12.88;;;22.70;99.90;;;;;;5036186;28;20184;-53
2023/09/02 10:57:56;;;;;;;14.10;12.75;;;22.50;99.90;;;;;;5035811;28;20603;-51
2023/09/02 11:00:25;;;;;;;15.52;14.10;;;22.40;99.90;;;;;;5036102;28;20641;-51
2023/09/02 11:02:53;;;;;;;12.35;11.32;;;22.60;99.90;;;;;;5036019;28;20183;-53
2023/09/02 11:05:20;;;;;;;13.93;12.63;;;22.70;99.90;;;;;;5035856;28;20198;-53
2023/09/02 11:07:47;;;;;;;12.43;11.18;;;22.80;99.90;;;;;;5035798;28;20184;-55
2023/09/02 11:10:13;;;;;;;12.65;11.52;;;22.80;99.90;;;;;;5035831;28;20180;-51
2023/09/02 11:12:57;;;;;;;12.60;11.57;;;23.20;99.90;;;;;;5035787;28;20226;-52
2023/09/02 11:15:23;;;;;;;13.45;12.15;;;23.50;99.90;;;;;;5035709;28;20170;-51
2023/09/02 11:17:49;;;;;;;16.23;14.02;;;23.80;99.90;;;;;;5035658;28;20604;-50
2023/09/02 11:20:19;;;;;;;15.38;13.90;;;23.50;99.90;;;;;;5034850;28;20230;-53
2023/09/02 11:23:01;;;;;;;16.08;14.43;;;23.20;99.90;;;;;;5035607;28;20172;-51
2023/09/02 11:25:39;;;;;;;19.85;17.98;;;23.10;99.90;;;;;;5035773;28;20206;-52
2023/09/02 11:28:07;;;;;;;19.35;17.60;;;22.90;99.90;;;;;;5035507;28;20172;-53
2023/09/02 11:30:37;;;;;;;19.92;18.33;;;22.60;99.90;;;;;;5035288;28;20176;-52
2023/09/02 11:33:04;;;;;;;20.23;18.42;;;22.50;99.90;;;;;;5035216;28;20175;-52
2023/09/02 11:35:34;;;;;;;20.45;18.55;;;22.50;99.90;;;;;;5035447;28;20187;-50
2023/09/02 11:38:02;;;;;;;21.30;19.50;;;22.80;99.90;;;;;;5035398;28;20286;-53
2023/09/02 11:40:28;;;;;;;20.52;18.63;;;23.10;99.90;;;;;;5035137;28;20321;-52
2023/09/02 11:42:54;;;;;;;20.83;18.90;;;23.50;99.90;;;;;;5035172;28;20255;-53
2023/09/02 11:45:21;;;;;;;25.65;23.15;;;23.50;99.90;;;;;;5034991;28;20179;-52
2023/09/02 11:47:49;;;;;;;30.95;28.17;;;23.40;99.90;;;;;;5035057;28;20172;-51
2023/09/02 11:50:16;;;;;;;30.02;27.10;;;23.10;99.90;;;;;;5035151;28;20566;-52
2023/09/02 11:52:42;;;;;;;28.02;25.55;;;22.80;99.90;;;;;;5035041;28;20529;-49
2023/09/02 11:55:13;;;;;;;26.92;24.60;;;22.70;99.90;;;;;;5034960;28;20178;-53
2023/09/02 11:57:39;;;;;;;26.40;23.98;;;22.80;99.90;;;;;;5034867;28;20231;-52
2023/09/02 12:00:07;;;;;;;21.90;19.80;;;22.90;99.90;;;;;;5034754;28;20180;-52
2023/09/02 12:02:36;;;;;;;24.15;21.80;;;22.90;99.90;;;;;;5034874;28;20310;-53
2023/09/02 12:05:06;;;;;;;22.33;20.42;;;22.80;99.90;;;;;;5034890;28;20530;-53
2023/09/02 12:07:35;;;;;;;22.73;20.60;;;23.10;99.90;;;;;;5034819;28;20171;-51
2023/09/02 12:10:09;;;;;;;20.35;18.55;;;23.50;99.90;;;;;;5034650;28;20176;-52
2023/09/02 12:12:40;;;;;;;19.92;18.10;;;23.20;99.90;;;;;;5034422;28;20172;-53
2023/09/02 12:15:06;;;;;;;21.65;19.50;;;23.00;99.90;;;;;;5034742;28;20629;-53
2023/09/02 12:17:32;;;;;;;20.63;18.88;;;22.80;99.90;;;;;;5034571;28;20211;-51
2023/09/02 12:20:00;;;;;;;21.00;19.20;;;23.00;99.90;;;;;;5034629;28;20545;-52
2023/09/02 12:22:27;;;;;;;20.33;18.42;;;23.00;99.90;;;;;;5034430;28;20259;-50
2023/09/02 12:24:53;;;;;;;18.60;16.90;;;23.00;99.90;;;;;;5034215;28;20540;-53
2023/09/02 12:27:18;;;;;;;24.83;22.42;;;23.30;99.90;;;;;;5034194;28;20259;-50
2023/09/02 12:29:57;;;;;;;22.65;20.65;;;23.50;99.90;;;;;;5034403;28;20176;-51
2023/09/02 12:32:23;;;;;;;18.48;16.75;;;23.80;99.90;;;;;;5034272;28;20172;-50
2023/09/02 12:34:49;;;;;;;17.00;15.50;;;24.10;99.90;;;;;;5034220;28;20259;-52
2023/09/02 12:37:20;;;;;;;17.65;16.13;;;24.20;99.90;;;;;;5034130;28;20720;-51
2023/09/02 12:39:46;;;;;;;16.08;14.65;;;24.10;99.90;;;;;;5032926;28;20202;-53
2023/09/02 12:42:15;;;;;;;17.27;15.57;;;24.30;99.90;;;;;;5034133;28;20183;-52
2023/09/02 12:44:51;;;;;;;18.55;16.83;;;24.00;99.90;;;;;;5034260;28;20572;-52